Andrews Air Force Base, MD

9:40 PM EDT on October 01, 2014 (GMT -0400)
Queenswood | Change Station
CLOSE
Current Station
Personal Weather Station
Location: Upper Marlboro, MD
Elevation: 207 ft
Nearby Weather Stations

Elev 207 ft 38.80 °N, 76.84 °W | Updated 5 seconds ago

Clear
Clear
61.8 °F
Feels Like 61.8 °F
N
0.0
Wind Variable Wind from SE
Gusts 0.0 mph

Today
High -- | Low -- °F
--% Chance of Precip.
Yesterday
High -- | Low -- °F
Precip. -- in
7:03 AM 6:50 PM
First Quarter, 53% visible
Pressure 30.07 in
Visibility 10.0 miles
Clouds Clear
Dew Point 61 °F
Humidity 96%
Rainfall 0.03 in
Snow Depth Not available.
UV 0 out of 12
Pollen 2.90 out of 12
Air Quality Not available.
Flu Activity Not available.
METAR KADW 020058Z AUTO 02001KT 10SM CLR 16/15 A3005 RMK AO2 SLP182 T01610154

More Conditions Fewer Conditions

Pressure 30.07 in
Visibility 10.0 miles
Clouds Clear
Dew Point 61 °F
Humidity 96%
Rainfall 0.03 in
Snow Depth Not available.
UV 0 out of 12
Pollen 2.90 out of 12
Air Quality Not available.
Flu Activity Not available.
METAR KADW 020058Z AUTO 02001KT 10SM CLR 16/15 A3005 RMK AO2 SLP182 T01610154

More Conditions Fewer Conditions

10-Day Weather Forecast

Almanac

Astronomy

Oct. 01, 2014 Rise Set
Actual Time 7:03 AM EDT 6:50 PM EDT
Civil Twilight 6:36 AM EDT 7:16 PM EDT
Nautical Twilight 6:06 AM EDT 7:47 PM EDT
Astronomical Twilight 5:34 AM EDT 8:18 PM EDT
Moon 1:59 PM EDT (10/1) No Moon Set
Length of Visible Light 12h 39m
Length of Day
11h 46m
Tomorrow will be 2m 29s shorter.
First Quarter, 53% of the Moon is Illuminated
Today
First Quarter
Oct 8
Full
Oct 15
Last Quarter
Oct 23
New
Oct 30
First Quarter

Today's Extremes

State Highs State Lows

Community

WunderPhotos

Upload Photos

1,758,118 photos uploaded!

WunderBlogs® & News

Nearby

Snow Depth

Station Depth Elevation
No new snow has been reported.

Earthquake Activity

City Distance Mag. Time & Date
No recent earthquake activity has been reported nearby.
Minimum magnitude displayed is 2.5.

Coastal Water Temperatures

Place Temperature
Washington, DC 71.1 °F
Baltimore, MD 73.9 °F
Solomons Island, MD 73.0 °F

Nearby Weather Stations